Time;durP1;ratioP1;P1;durP2;ratioP2;P2;SDS_P1;SDS_P2;PMS_P1;PMS_P2;Temp;Humidity;BMP_temperature;BMP_pressure;BME280_temperature;BME280_humidity;BME280_pressure;Samples;Min_cycle;Max_cycle;Signal;HPM_P1;HPM_P2
2020/12/20 00:01:41;;;;;;;7.03;4.93;;;4.70;99.90;;;5.38;88.97;100709.56;4752950;30;20217;-68
2020/12/20 00:04:10;;;;;;;6.17;4.47;;;4.60;99.90;;;5.64;87.91;100713.63;4752462;30;20236;-68
2020/12/20 00:06:39;;;;;;;5.63;4.60;;;4.60;99.90;;;5.64;87.51;100710.94;4752781;30;20302;-69
2020/12/20 00:09:13;;;;;;;6.37;4.73;;;4.70;99.90;;;5.67;87.30;100707.91;4752613;30;20222;-68
2020/12/20 00:11:44;;;;;;;6.53;4.60;;;4.70;99.90;;;5.68;87.30;100706.88;4752585;30;20200;-68
2020/12/20 00:14:27;;;;;;;5.77;4.43;;;4.70;99.90;;;5.59;87.92;100699.94;4752507;30;20227;-69
2020/12/20 00:17:00;;;;;;;4.83;4.33;;;4.70;99.90;;;5.80;87.10;100699.34;4752570;30;20726;-69
2020/12/20 00:19:30;;;;;;;5.53;4.50;;;4.70;99.90;;;5.68;87.49;100706.09;4752501;30;20211;-68
2020/12/20 00:22:00;;;;;;;6.27;4.60;;;4.70;99.90;;;5.87;85.98;100711.00;4752429;30;20219;-68
2020/12/20 00:24:28;;;;;;;5.63;4.63;;;4.80;99.90;;;5.88;86.12;100718.03;4752596;30;20227;-67
2020/12/20 00:26:56;;;;;;;5.63;4.50;;;4.80;99.90;;;6.01;84.92;100719.13;4752285;30;20674;-68
2020/12/20 00:29:24;;;;;;;4.97;4.27;;;4.90;99.90;;;6.19;84.53;100713.47;4751950;30;20255;-68
2020/12/20 00:31:51;;;;;;;4.73;4.07;;;5.10;99.90;;;6.13;84.83;100711.53;4752301;30;20682;-68
2020/12/20 00:34:19;;;;;;;5.93;4.70;;;5.10;99.90;;;5.87;86.05;100722.53;4752196;30;20210;-68
2020/12/20 00:36:49;;;;;;;5.80;4.83;;;5.10;99.90;;;5.75;86.63;100718.56;4751897;30;20234;-67
2020/12/20 00:39:20;;;;;;;6.20;4.50;;;5.00;99.90;;;5.58;87.18;100718.81;4752614;30;20216;-68
2020/12/20 00:41:50;;;;;;;6.13;4.23;;;4.90;99.90;;;5.80;86.66;100723.41;4751893;30;20200;-68
2020/12/20 00:44:18;;;;;;;5.70;4.70;;;4.90;99.90;;;5.87;86.55;100733.22;4752003;30;20259;-68
2020/12/20 00:46:46;;;;;;;6.40;4.90;;;4.90;99.90;;;5.75;86.23;100729.25;4752458;30;20217;-69
2020/12/20 00:49:22;;;;;;;6.43;4.90;;;4.90;99.90;;;5.49;88.09;100725.19;4751919;30;20243;-70
2020/12/20 00:51:50;;;;;;;6.03;4.63;;;4.80;99.90;;;5.37;89.33;100711.38;4752138;30;20211;-69
2020/12/20 00:54:18;;;;;;;5.53;4.33;;;4.70;99.90;;;5.47;88.69;100701.31;4751851;30;20315;-68
2020/12/20 00:56:46;;;;;;;5.87;4.70;;;4.60;99.90;;;5.51;88.15;100707.16;4751954;30;20293;-68
2020/12/20 00:59:13;;;;;;;4.50;3.93;;;4.60;99.90;;;5.63;87.48;100709.25;4751758;30;20214;-68
2020/12/20 01:01:41;;;;;;;5.10;4.20;;;4.70;99.90;;;5.59;87.00;100705.28;4751983;30;20312;-68
2020/12/20 01:04:08;;;;;;;4.67;3.87;;;4.70;99.90;;;5.71;86.53;100711.06;4751870;30;20237;-69
2020/12/20 01:06:36;;;;;;;5.60;4.70;;;4.80;99.90;;;5.84;85.51;100711.34;4751748;30;20310;-69
2020/12/20 01:09:05;;;;;;;5.37;4.33;;;4.80;99.90;;;5.66;86.53;100708.94;4751630;30;20214;-69
2020/12/20 01:11:34;;;;;;;5.63;4.30;;;4.80;99.90;;;6.08;84.88;100711.22;4751670;30;20309;-69
2020/12/20 01:14:03;;;;;;;5.60;4.53;;;5.00;99.90;;;5.78;86.00;100709.38;4751461;30;20206;-68
2020/12/20 01:16:31;;;;;;;5.23;4.63;;;4.90;99.90;;;6.01;84.80;100712.94;4751106;30;20365;-69
2020/12/20 01:18:59;;;;;;;6.37;4.37;;;5.00;99.90;;;6.02;84.37;100714.63;4751278;30;20218;-68
2020/12/20 01:21:27;;;;;;;4.43;3.77;;;5.00;99.90;;;5.76;85.37;100724.75;4751583;30;20215;-62
2020/12/20 01:23:54;;;;;;;5.63;4.20;;;5.00;99.90;;;5.77;85.79;100721.88;4751239;30;20322;-62
2020/12/20 01:26:23;;;;;;;4.80;4.10;;;5.00;99.90;;;5.74;85.82;100721.41;4751136;30;20246;-63
2020/12/20 01:28:50;;;;;;;5.77;4.57;;;4.90;99.90;;;5.82;85.63;100722.22;4751200;30;20300;-62
2020/12/20 01:31:17;;;;;;;5.93;4.60;;;4.80;99.90;;;5.99;85.00;100731.81;4751244;30;20716;-63
2020/12/20 01:33:45;;;;;;;5.17;4.10;;;4.90;99.90;;;5.91;85.21;100729.22;4751609;30;20219;-63
2020/12/20 01:36:14;;;;;;;5.77;4.53;;;4.90;99.90;;;5.71;86.07;100724.44;4751105;30;20219;-62
2020/12/20 01:38:42;;;;;;;5.53;4.60;;;4.80;99.90;;;5.70;85.48;100717.44;4751437;30;20216;-61
2020/12/20 01:41:10;;;;;;;6.77;4.63;;;4.80;99.90;;;5.51;86.76;100728.53;4751118;30;20211;-62
2020/12/20 01:43:43;;;;;;;5.77;4.30;;;4.70;99.90;;;5.93;85.13;100729.03;4750581;30;20374;-62
2020/12/20 01:46:13;;;;;;;6.00;4.40;;;4.90;99.90;;;5.85;84.59;100731.75;4751241;30;20782;-61
2020/12/20 01:48:42;;;;;;;5.73;3.90;;;5.00;99.90;;;5.91;84.89;100739.91;4750797;30;20249;-61
2020/12/20 01:51:09;;;;;;;4.30;3.87;;;5.00;99.90;;;5.97;83.67;100727.69;4750770;30;20704;-64
2020/12/20 01:53:38;;;;;;;5.33;4.10;;;5.00;99.90;;;5.97;83.90;100735.69;4751172;30;20326;-62
2020/12/20 01:56:07;;;;;;;4.70;3.67;;;5.10;99.90;;;5.88;83.49;100734.06;4751015;30;20250;-61
2020/12/20 01:58:37;;;;;;;4.57;3.73;;;5.10;99.90;;;5.94;82.86;100728.84;4750764;30;20246;-62
2020/12/20 02:01:07;;;;;;;5.03;4.10;;;5.10;99.90;;;6.05;82.97;100732.97;4750646;30;20301;-61
2020/12/20 02:03:36;;;;;;;5.43;4.03;;;5.10;99.90;;;6.00;82.66;100736.16;4750868;30;20226;-60
2020/12/20 02:06:05;;;;;;;5.20;4.07;;;5.20;99.90;;;5.95;82.66;100740.38;4750847;30;20219;-61
2020/12/20 02:08:33;;;;;;;5.30;4.33;;;5.20;99.90;;;5.90;83.10;100735.53;4751327;30;20274;-62
2020/12/20 02:11:10;;;;;;;5.93;4.20;;;5.10;99.90;;;6.06;82.78;100742.66;4750681;30;20596;-61
2020/12/20 02:13:43;;;;;;;4.50;3.80;;;5.20;99.90;;;6.06;82.31;100737.31;4750709;30;20256;-62
2020/12/20 02:16:13;;;;;;;4.73;3.80;;;5.20;99.90;;;6.08;82.03;100725.44;4750988;30;20297;-62
2020/12/20 02:18:40;;;;;;;5.03;3.47;;;5.20;99.90;;;6.02;82.85;100726.13;4750856;30;20254;-61
2020/12/20 02:21:13;;;;;;;4.80;4.03;;;5.20;99.90;;;6.09;82.27;100716.38;4750749;30;20251;-61
2020/12/20 02:23:43;;;;;;;5.13;4.10;;;5.20;99.90;;;6.22;81.31;100723.00;4750623;30;20206;-61
2020/12/20 02:26:11;;;;;;;4.53;3.80;;;5.20;99.90;;;6.16;81.75;100716.50;4752113;30;20215;-61
2020/12/20 02:28:39;;;;;;;5.50;4.17;;;5.20;99.90;;;5.99;82.46;100714.94;4754269;30;20301;-62
2020/12/20 02:31:07;;;;;;;4.57;3.40;;;5.30;99.90;;;6.11;81.61;100708.19;4754201;30;20685;-61
2020/12/20 02:33:36;;;;;;;4.77;3.67;;;5.30;99.90;;;6.02;81.59;100709.28;4754211;30;20210;-62
2020/12/20 02:36:04;;;;;;;4.30;3.40;;;5.20;99.90;;;6.11;81.39;100698.31;4754238;30;20226;-62
2020/12/20 02:38:33;;;;;;;4.50;3.73;;;5.20;99.90;;;6.14;80.94;100705.16;4754363;30;20211;-61
2020/12/20 02:41:00;;;;;;;5.13;3.90;;;5.20;99.90;;;6.22;80.59;100704.28;4753853;30;20634;-62
2020/12/20 02:43:28;;;;;;;5.97;4.00;;;5.30;99.90;;;6.10;81.10;100710.06;4753697;30;20768;-62
2020/12/20 02:45:55;;;;;;;4.40;3.60;;;5.20;99.90;;;6.24;80.97;100711.09;4754171;30;20329;-61
2020/12/20 02:48:22;;;;;;;4.87;3.97;;;5.30;99.90;;;6.09;81.03;100711.03;4753778;30;20247;-62
2020/12/20 02:50:49;;;;;;;5.23;3.93;;;5.30;99.90;;;6.06;81.52;100714.06;4754106;30;20250;-62
2020/12/20 02:53:17;;;;;;;4.87;3.70;;;5.30;99.90;;;6.13;80.70;100712.34;4754140;30;20218;-62
2020/12/20 02:55:45;;;;;;;5.17;3.83;;;5.20;99.90;;;6.24;80.10;100712.97;4753939;30;20211;-61
2020/12/20 02:58:12;;;;;;;5.37;3.83;;;5.30;99.90;;;6.21;81.46;100714.13;4753713;30;20479;-62
2020/12/20 03:00:39;;;;;;;4.60;3.93;;;5.30;99.90;;;6.08;81.04;100711.22;4753943;30;20234;-62
2020/12/20 03:03:06;;;;;;;4.10;3.60;;;5.30;99.90;;;6.08;80.89;100706.72;4753965;30;20302;-61
2020/12/20 03:05:34;;;;;;;6.13;3.80;;;5.30;99.90;;;5.99;81.36;100710.44;4753311;30;20740;-62
2020/12/20 03:08:01;;;;;;;5.10;3.70;;;5.30;99.90;;;6.04;81.06;100708.06;4753616;30;20218;-62
2020/12/20 03:10:29;;;;;;;3.77;3.23;;;5.20;99.90;;;5.91;82.33;100712.31;4753808;30;20217;-62
2020/12/20 03:12:57;;;;;;;4.90;3.90;;;5.20;99.90;;;5.92;81.60;100709.47;4753328;30;20214;-61
2020/12/20 03:15:24;;;;;;;5.30;3.97;;;5.20;99.90;;;6.03;81.29;100702.91;4753757;30;20212;-62
2020/12/20 03:17:51;;;;;;;5.27;3.80;;;5.20;99.90;;;5.97;81.24;100707.09;4753541;30;20707;-61
2020/12/20 03:20:18;;;;;;;4.90;3.67;;;5.20;99.90;;;5.97;82.47;100712.44;4753612;30;20207;-61
2020/12/20 03:22:46;;;;;;;4.00;3.10;;;5.20;99.90;;;6.09;80.86;100712.88;4753643;30;20215;-61
2020/12/20 03:25:13;;;;;;;4.30;3.70;;;5.20;99.90;;;6.12;80.59;100710.69;4753572;30;20264;-62
2020/12/20 03:27:40;;;;;;;4.73;3.63;;;5.20;99.90;;;6.19;80.66;100705.44;4752848;30;20301;-63
2020/12/20 03:30:08;;;;;;;4.27;3.63;;;5.30;99.90;;;6.26;80.67;100711.75;4753483;30;20496;-61
2020/12/20 03:32:35;;;;;;;5.87;3.60;;;5.30;99.90;;;6.15;80.41;100709.50;4753412;30;20582;-62
2020/12/20 03:35:03;;;;;;;4.20;3.60;;;5.30;99.90;;;6.19;79.46;100710.78;4752949;30;20606;-61
2020/12/20 03:37:30;;;;;;;4.93;4.03;;;5.30;99.90;;;6.17;80.21;100704.81;4752653;30;20215;-61
2020/12/20 03:39:57;;;;;;;4.17;3.77;;;5.30;99.90;;;6.22;80.09;100699.75;4753366;30;20210;-62
2020/12/20 03:42:24;;;;;;;4.20;3.20;;;5.40;99.90;;;6.15;80.24;100714.84;4752624;30;20310;-61
2020/12/20 03:44:51;;;;;;;4.53;3.73;;;5.30;99.90;;;6.14;80.28;100708.66;4753224;30;20332;-61
2020/12/20 03:47:19;;;;;;;4.83;4.10;;;5.30;99.90;;;6.17;80.53;100710.97;4753182;30;20644;-61
2020/12/20 03:49:47;;;;;;;4.13;3.50;;;5.40;99.90;;;6.32;78.98;100713.72;4753052;30;20279;-61
2020/12/20 03:52:14;;;;;;;5.97;3.83;;;5.40;99.90;;;6.34;79.24;100717.06;4753111;30;20298;-61
2020/12/20 03:54:41;;;;;;;4.70;3.57;;;5.40;99.90;;;6.38;79.10;100723.72;4753083;30;20231;-62
2020/12/20 03:57:09;;;;;;;4.23;3.67;;;5.40;99.90;;;6.20;79.97;100715.16;4752350;30;20214;-62
2020/12/20 03:59:39;;;;;;;5.00;3.93;;;5.40;99.90;;;6.06;80.63;100722.09;4752805;30;20313;-61
2020/12/20 04:02:06;;;;;;;5.23;3.97;;;5.40;99.90;;;6.13;80.72;100727.56;4752935;30;20213;-62
2020/12/20 04:04:34;;;;;;;3.43;3.13;;;5.30;99.90;;;6.06;80.83;100729.28;4752685;30;20831;-62
2020/12/20 04:07:01;;;;;;;5.13;3.93;;;5.30;99.90;;;6.10;80.85;100723.41;4752977;30;20295;-61
2020/12/20 04:09:29;;;;;;;5.20;3.57;;;5.30;99.90;;;6.22;80.99;100710.47;4752900;30;20622;-61
2020/12/20 04:11:56;;;;;;;5.37;3.93;;;5.30;99.90;;;6.25;80.53;100710.09;4752389;30;20258;-61
2020/12/20 04:14:23;;;;;;;4.73;3.93;;;5.30;99.90;;;6.29;80.20;100708.75;4752692;30;20222;-61
2020/12/20 04:16:50;;;;;;;5.37;3.97;;;5.40;99.90;;;6.22;80.37;100706.94;4752414;30;20211;-62
2020/12/20 04:19:17;;;;;;;4.87;3.90;;;5.30;99.90;;;6.27;79.60;100707.25;4752273;30;20677;-62
2020/12/20 04:21:47;;;;;;;4.60;3.73;;;5.40;99.90;;;6.23;81.30;100712.13;4752483;30;20268;-61
2020/12/20 04:24:15;;;;;;;4.60;3.90;;;5.40;99.90;;;6.09;81.34;100713.72;4752535;30;20321;-61
2020/12/20 04:26:43;;;;;;;5.30;4.03;;;5.30;99.90;;;5.98;82.67;100716.81;4752103;30;20234;-62
2020/12/20 04:29:12;;;;;;;5.70;4.10;;;5.30;99.90;;;6.17;80.84;100713.66;4752437;30;20326;-61
2020/12/20 04:31:39;;;;;;;4.57;4.13;;;5.30;99.90;;;6.25;80.11;100707.44;4752402;30;20281;-62
2020/12/20 04:34:06;;;;;;;5.00;3.90;;;5.30;99.90;;;6.14;80.99;100710.50;4752288;30;20675;-61
2020/12/20 04:36:33;;;;;;;5.17;3.77;;;5.30;99.90;;;6.24;80.31;100712.97;4752181;30;20307;-61
2020/12/20 04:39:01;;;;;;;4.57;4.00;;;5.30;99.90;;;6.18;80.82;100711.81;4752341;30;20313;-62
2020/12/20 04:41:28;;;;;;;6.03;3.57;;;5.30;99.90;;;6.12;80.77;100704.53;4751918;30;20220;-62
2020/12/20 04:43:56;;;;;;;4.47;3.73;;;5.20;99.90;;;6.04;80.88;100704.53;4751947;30;20697;-61
2020/12/20 04:46:27;;;;;;;5.17;4.13;;;5.20;99.90;;;5.77;82.21;100710.34;4751855;30;20224;-61
2020/12/20 04:48:54;;;;;;;5.10;4.17;;;5.10;99.90;;;5.93;82.58;100713.84;4751587;30;20255;-62
2020/12/20 04:51:22;;;;;;;4.87;3.77;;;5.00;99.90;;;5.82;82.87;100716.88;4751353;30;20678;-61
2020/12/20 04:53:52;;;;;;;4.73;4.20;;;5.00;99.90;;;6.06;81.78;100719.44;4752152;30;20230;-62
2020/12/20 04:56:22;;;;;;;5.83;4.20;;;5.10;99.90;;;5.96;82.08;100710.78;4751230;30;20305;-62
2020/12/20 04:58:50;;;;;;;5.27;4.10;;;5.10;99.90;;;5.99;81.98;100712.28;4751930;30;20216;-61
2020/12/20 05:01:17;;;;;;;5.33;4.07;;;5.10;99.90;;;5.86;82.24;100709.34;4751892;30;20313;-62
2020/12/20 05:03:45;;;;;;;4.40;3.90;;;5.10;99.90;;;5.72;83.50;100710.06;4751580;30;20268;-62
2020/12/20 05:06:13;;;;;;;5.37;4.20;;;4.90;99.90;;;5.69;84.16;100719.25;4751556;30;20243;-62
2020/12/20 05:08:40;;;;;;;5.40;3.70;;;4.90;99.90;;;6.23;81.33;100722.81;4751736;30;20218;-62
2020/12/20 05:11:07;;;;;;;5.53;4.23;;;5.00;99.90;;;6.21;81.39;100726.69;4751317;30;20207;-62
2020/12/20 05:13:42;;;;;;;4.23;3.83;;;5.10;99.90;;;5.85;82.67;100723.72;4751379;30;20244;-62
2020/12/20 05:16:31;;;;;;;5.13;4.00;;;5.10;99.90;;;5.78;83.81;100712.03;4751369;30;20305;-61
2020/12/20 05:19:00;;;;;;;5.17;4.00;;;5.00;99.90;;;5.96;84.50;100715.31;4751627;30;20235;-62
2020/12/20 05:21:29;;;;;;;4.87;4.00;;;5.00;99.90;;;5.89;83.40;100717.84;4751170;30;20212;-61
2020/12/20 05:23:59;;;;;;;4.23;3.83;;;5.00;99.90;;;5.83;82.45;100715.91;4751560;30;20210;-62
2020/12/20 05:26:27;;;;;;;5.30;4.03;;;5.00;99.90;;;5.64;83.24;100712.78;4751125;30;20215;-61
2020/12/20 05:29:09;;;;;;;5.40;4.07;;;5.00;99.90;;;6.05;82.31;100708.91;4751473;30;20216;-61
2020/12/20 05:31:36;;;;;;;6.00;3.80;;;5.00;99.90;;;6.24;80.79;100708.41;4751540;30;20198;-61
2020/12/20 05:34:04;;;;;;;5.40;4.50;;;5.20;99.90;;;6.25;80.54;100709.25;4751341;30;20215;-62
2020/12/20 05:36:32;;;;;;;5.30;4.10;;;5.20;99.90;;;6.21;80.36;100708.78;4751165;30;20215;-61
2020/12/20 05:39:14;;;;;;;5.20;4.10;;;5.30;99.90;;;6.19;81.10;100710.78;4750994;30;20216;-62
2020/12/20 05:41:44;;;;;;;4.60;4.20;;;5.30;99.90;;;6.11;81.04;100708.19;4750714;30;20234;-62
2020/12/20 05:44:19;;;;;;;5.57;4.10;;;5.30;99.90;;;6.11;80.37;100710.84;4750978;30;20215;-64
2020/12/20 05:46:48;;;;;;;5.03;4.53;;;5.30;99.90;;;6.27;80.82;100700.06;4751394;30;20227;-62
2020/12/20 05:49:20;;;;;;;5.20;4.40;;;5.30;99.90;;;6.26;79.99;100708.28;4750906;30;20279;-61
2020/12/20 05:52:09;;;;;;;5.27;4.20;;;5.30;99.90;;;6.26;79.50;100695.69;4750911;30;20642;-62
2020/12/20 05:54:39;;;;;;;5.50;4.27;;;5.30;99.90;;;6.24;79.36;100700.41;4750968;30;20283;-62
2020/12/20 05:57:08;;;;;;;4.97;4.07;;;5.40;99.90;;;6.22;79.96;100700.56;4750467;30;20302;-61
2020/12/20 05:59:37;;;;;;;5.83;4.33;;;5.30;99.90;;;6.14;80.23;100695.28;4751153;30;20374;-62
2020/12/20 06:02:06;;;;;;;4.90;4.20;;;5.30;99.90;;;6.08;80.40;100695.19;4750869;30;20226;-61
2020/12/20 06:04:35;;;;;;;5.77;4.37;;;5.20;99.90;;;6.09;80.68;100695.00;4750817;30;20333;-62
2020/12/20 06:07:07;;;;;;;4.47;3.93;;;5.20;99.90;;;5.89;82.11;100688.44;4750695;30;20655;-61
2020/12/20 06:09:51;;;;;;;6.27;4.50;;;5.10;99.90;;;5.80;83.26;100699.34;4751020;30;20211;-62
2020/12/20 06:12:20;;;;;;;5.27;4.50;;;5.00;99.90;;;6.01;81.24;100688.88;4750978;30;20310;-62
2020/12/20 06:14:50;;;;;;;5.20;4.07;;;5.10;99.90;;;5.96;81.46;100686.72;4750969;30;20194;-62
2020/12/20 06:17:20;;;;;;;4.70;4.10;;;5.10;99.90;;;5.85;83.23;100684.44;4750691;30;20215;-61
2020/12/20 06:19:57;;;;;;;6.13;4.70;;;5.00;99.90;;;6.04;82.24;100688.50;4715835;30;20207;-62
2020/12/20 06:22:30;;;;;;;4.87;4.13;;;5.00;99.90;;;6.03;81.02;100686.84;4715585;30;20659;-62
2020/12/20 06:25:00;;;;;;;5.37;4.17;;;5.00;99.90;;;5.86;83.35;100688.81;4715812;30;20247;-61
2020/12/20 06:27:29;;;;;;;4.47;3.77;;;5.00;99.90;;;5.72;83.99;100688.66;4715871;30;20231;-68
2020/12/20 06:30:00;;;;;;;4.90;4.00;;;4.90;99.90;;;5.70;82.97;100690.72;4715836;30;20420;-69
2020/12/20 06:32:35;;;;;;;6.33;4.57;;;4.90;99.90;;;5.33;84.86;100696.69;4715719;30;20522;-68
2020/12/20 06:35:13;;;;;;;4.90;4.27;;;4.70;99.90;;;5.41;86.22;100685.97;4715295;30;20635;-68
2020/12/20 06:37:43;;;;;;;5.63;4.47;;;4.50;99.90;;;5.30;86.30;100683.69;4715932;30;20210;-68
2020/12/20 06:40:12;;;;;;;5.60;4.17;;;4.50;99.90;;;5.19;87.45;100685.91;4715839;30;20220;-68
2020/12/20 06:42:42;;;;;;;5.67;4.13;;;4.40;99.90;;;4.98;88.14;100684.66;4715606;30;20314;-63
2020/12/20 06:45:19;;;;;;;5.70;4.17;;;4.30;99.90;;;4.92;88.96;100695.97;4715362;30;20712;-61
2020/12/20 06:47:49;;;;;;;5.57;4.50;;;4.20;99.90;;;5.00;88.81;100695.16;4715546;30;20290;-62
2020/12/20 06:50:44;;;;;;;5.20;4.10;;;4.10;99.90;;;4.83;88.75;100699.69;4714604;30;20312;-62
2020/12/20 06:53:14;;;;;;;6.33;4.90;;;4.10;99.90;;;4.81;89.46;100704.38;4714739;30;20292;-61
2020/12/20 06:55:42;;;;;;;5.77;4.40;;;4.00;99.90;;;5.03;89.58;100705.47;4714835;30;20565;-61
2020/12/20 06:58:12;;;;;;;6.40;4.47;;;4.00;99.90;;;5.34;86.43;100690.38;4714649;30;20310;-61
2020/12/20 07:00:43;;;;;;;6.70;4.37;;;4.20;99.90;;;5.28;86.22;100700.88;4714885;30;20190;-62
2020/12/20 07:03:31;;;;;;;5.63;4.77;;;4.30;99.90;;;4.85;88.49;100700.34;4714611;30;20207;-61
2020/12/20 07:06:14;;;;;;;5.50;4.10;;;4.20;99.90;;;4.64;90.07;100704.53;4714561;30;20233;-63
2020/12/20 07:09:07;;;;;;;6.17;4.50;;;4.00;99.90;;;5.09;88.81;100698.63;4714838;30;20197;-62
2020/12/20 07:11:44;;;;;;;5.80;4.73;;;4.00;99.90;;;5.44;85.98;100706.19;4714805;30;20208;-62
2020/12/20 07:14:20;;;;;;;7.00;4.57;;;4.30;99.90;;;5.40;86.24;100719.06;4717008;30;20203;-61
2020/12/20 07:16:49;;;;;;;5.67;4.47;;;4.40;99.90;;;5.26;86.31;100726.97;4717337;30;20199;-62
2020/12/20 07:19:25;;;;;;;5.63;4.37;;;4.50;99.90;;;5.30;86.30;100718.41;4745895;30;20211;-61
2020/12/20 07:22:01;;;;;;;5.97;4.73;;;4.50;99.90;;;5.21;87.17;100715.97;4752226;30;20391;-61
2020/12/20 07:24:31;;;;;;;5.63;4.23;;;4.50;99.90;;;5.16;87.82;100721.78;4752221;30;20361;-62
2020/12/20 07:27:01;;;;;;;4.87;3.97;;;4.50;99.90;;;5.21;87.11;100721.28;4752366;30;20253;-62
2020/12/20 07:29:31;;;;;;;5.27;4.30;;;4.40;99.90;;;5.09;87.85;100725.34;4752230;30;20225;-61
2020/12/20 07:32:03;;;;;;;5.80;4.10;;;4.40;99.90;;;5.32;86.44;100712.91;4752575;30;20215;-62
2020/12/20 07:34:31;;;;;;;5.20;3.97;;;4.40;99.90;;;5.57;85.19;100704.63;4752586;30;20203;-61
2020/12/20 07:36:58;;;;;;;5.57;4.50;;;4.50;99.90;;;5.47;86.05;100708.50;4752205;30;20253;-62
2020/12/20 07:39:26;;;;;;;5.73;4.17;;;4.60;99.90;;;5.39;86.10;100716.56;4752227;30;20306;-62
2020/12/20 07:41:58;;;;;;;5.73;4.73;;;4.50;99.90;;;5.58;84.11;100702.78;4752161;30;20237;-62
2020/12/20 07:44:25;;;;;;;5.40;4.27;;;4.60;99.90;;;5.63;84.04;100703.91;4752015;30;20291;-62
2020/12/20 07:46:52;;;;;;;5.50;4.37;;;4.70;99.90;;;5.73;83.27;100707.19;4752347;30;20306;-61
2020/12/20 07:49:20;;;;;;;5.30;4.33;;;4.70;99.90;;;5.72;82.95;100710.06;4731412;30;648680;-61
2020/12/20 07:51:47;;;;;;;6.60;4.90;;;4.80;99.90;;;5.89;81.42;100714.34;4753127;30;20211;-62
2020/12/20 07:54:15;;;;;;;6.07;4.50;;;4.80;99.90;;;5.94;81.97;100701.28;4753025;30;20312;-62
2020/12/20 07:56:45;;;;;;;5.60;4.33;;;4.80;99.90;;;6.02;80.49;100710.06;4753098;30;20600;-62
2020/12/20 07:59:17;;;;;;;5.10;4.20;;;5.00;99.90;;;5.72;82.52;100712.72;4753225;30;20195;-62
2020/12/20 08:01:48;;;;;;;4.83;4.10;;;4.90;99.90;;;5.93;82.14;100721.84;4752827;30;20620;-61
2020/12/20 08:04:18;;;;;;;5.27;4.03;;;4.90;99.90;;;5.76;82.65;100716.72;4752696;30;20246;-63
2020/12/20 08:06:49;;;;;;;6.80;5.00;;;4.90;99.90;;;6.01;81.96;100718.28;4752673;30;20234;-62
2020/12/20 08:09:22;;;;;;;6.73;4.70;;;5.00;99.90;;;6.05;81.85;100715.06;4752473;30;20222;-63
2020/12/20 08:11:52;;;;;;;6.33;4.03;;;5.00;99.90;;;6.40;79.44;100719.00;4752764;30;20207;-61
2020/12/20 08:14:21;;;;;;;5.23;4.00;;;5.20;99.90;;;6.50;78.78;100708.91;4733933;30;20685;-62
2020/12/20 08:16:51;;;;;;;5.63;3.83;;;5.30;99.90;;;6.27;79.59;100713.44;4717540;30;20235;-62
2020/12/20 08:19:22;;;;;;;6.13;3.93;;;5.40;99.90;;;6.31;79.14;100703.22;4746113;30;20223;-62
2020/12/20 08:22:12;;;;;;;5.83;4.27;;;5.40;99.90;;;6.21;80.42;100700.75;4752399;30;20289;-62
2020/12/20 08:24:42;;;;;;;6.10;4.47;;;5.30;99.90;;;6.48;79.30;100702.88;4752135;30;20291;-63
2020/12/20 08:27:16;;;;;;;6.13;4.53;;;5.40;99.90;;;6.61;79.10;100697.78;4752669;30;20216;-61
2020/12/20 08:29:45;;;;;;;5.77;4.57;;;5.50;99.90;;;6.52;79.33;100700.69;4752290;30;20740;-61
2020/12/20 08:32:15;;;;;;;5.10;3.87;;;5.50;99.90;;;6.66;78.49;100702.59;4753381;30;20334;-62
2020/12/20 08:34:43;;;;;;;4.93;4.30;;;5.60;99.90;;;6.76;77.11;100705.84;4747089;30;20204;-62
2020/12/20 08:37:14;;;;;;;4.33;3.90;;;5.60;99.90;;;6.61;77.82;100700.47;4726206;30;20354;-62
2020/12/20 08:39:42;;;;;;;5.20;4.27;;;5.60;99.90;;;6.73;76.64;100704.34;4718363;30;20206;-62
2020/12/20 08:42:12;;;;;;;5.83;3.90;;;5.70;99.90;;;6.80;76.00;100701.78;4724841;30;20574;-61
2020/12/20 08:44:41;;;;;;;5.83;4.30;;;5.80;99.90;;;6.69;77.36;100712.91;4717382;30;20206;-62
2020/12/20 08:47:13;;;;;;;5.60;4.20;;;5.70;99.90;;;6.78;76.73;100701.94;4725134;30;20215;-62
2020/12/20 08:49:53;;;;;;;6.47;4.47;;;5.80;99.90;;;6.99;75.83;100702.09;4717823;30;20241;-62
2020/12/20 08:52:21;;;;;;;6.73;4.07;;;5.90;99.90;;;6.88;76.51;100707.06;4722172;30;20201;-63
2020/12/20 08:54:51;;;;;;;6.17;4.10;;;5.90;99.90;;;6.86;75.76;100712.59;4725163;30;20643;-62
2020/12/20 08:57:23;;;;;;;6.20;4.20;;;6.00;99.90;;;6.83;75.37;100710.25;4724727;30;20212;-63
2020/12/20 08:59:51;;;;;;;5.20;4.03;;;6.00;99.90;;;6.96;75.26;100715.00;4727524;30;20306;-62
2020/12/20 09:02:20;;;;;;;5.03;4.13;;;6.10;99.90;;;6.98;75.61;100707.63;4716907;30;20251;-61
2020/12/20 09:04:59;;;;;;;5.00;4.00;;;6.10;99.90;;;7.08;75.31;100708.19;4716776;30;20684;-62
2020/12/20 09:07:35;;;;;;;4.97;3.93;;;6.10;99.90;;;7.09;75.09;100701.81;4716408;30;20618;-61
2020/12/20 09:10:08;;;;;;;4.60;4.03;;;6.10;99.90;;;7.34;74.53;100701.34;4716660;30;20194;-62
2020/12/20 09:12:36;;;;;;;4.70;4.10;;;6.20;99.90;;;7.47;73.34;100703.38;4716378;30;20202;-62
2020/12/20 09:15:10;;;;;;;5.27;3.73;;;6.30;99.90;;;7.43;73.77;100696.72;4716458;30;20725;-62
2020/12/20 09:17:40;;;;;;;6.43;4.77;;;6.40;99.90;;;7.45;74.18;100689.34;4720786;30;20201;-62
2020/12/20 09:20:11;;;;;;;5.27;4.37;;;6.40;99.90;;;7.55;74.36;100697.06;4748148;30;20223;-61
2020/12/20 09:22:58;;;;;;;5.07;4.13;;;6.40;99.90;;;7.64;72.88;100709.38;4733639;30;20292;-61
2020/12/20 09:25:33;;;;;;;5.60;4.40;;;6.50;99.90;;;7.50;73.72;100694.97;4733905;30;20217;-60
2020/12/20 09:28:03;;;;;;;5.93;4.23;;;6.60;99.90;;;7.25;75.07;100705.16;4734132;30;20200;-62
2020/12/20 09:30:43;;;;;;;4.90;4.10;;;6.50;99.90;;;7.63;73.58;100702.34;4733400;30;20577;-63
2020/12/20 09:33:26;;;;;;;4.83;4.10;;;6.50;99.90;;;7.59;73.53;100698.38;4733791;30;20199;-61
2020/12/20 09:35:58;;;;;;;5.67;4.30;;;6.60;99.90;;;7.80;73.00;100698.41;4733236;30;20262;-63
2020/12/20 09:38:30;;;;;;;7.40;5.03;;;6.70;99.90;;;7.85;72.63;100701.38;4733701;30;20619;-62
2020/12/20 09:41:00;;;;;;;5.63;4.23;;;6.80;99.90;;;7.92;72.46;100711.16;4733702;30;20212;-62
2020/12/20 09:43:28;;;;;;;5.33;4.20;;;6.90;99.90;;;8.15;71.84;100709.13;4733752;30;20307;-61
2020/12/20 09:45:55;;;;;;;5.23;4.27;;;7.00;99.90;;;8.17;71.04;100717.00;4733626;30;20229;-61
2020/12/20 09:48:22;;;;;;;6.60;3.87;;;7.20;99.90;;;7.97;72.54;100724.84;4733709;30;20347;-61
2020/12/20 09:50:50;;;;;;;5.27;4.33;;;7.10;99.90;;;7.96;72.28;100709.78;4733982;30;20311;-62
2020/12/20 09:53:18;;;;;;;4.37;3.43;;;7.10;99.90;;;8.04;72.43;100714.19;4734698;30;20225;-63
2020/12/20 09:55:46;;;;;;;4.67;3.93;;;7.10;99.90;;;8.19;71.94;100721.16;4734213;30;20213;-63
2020/12/20 09:58:15;;;;;;;4.90;3.93;;;7.20;99.90;;;8.34;71.47;100713.91;4733377;30;20295;-62
2020/12/20 10:00:44;;;;;;;4.67;4.17;;;7.30;99.90;;;8.52;70.38;100719.66;4732847;30;20295;-63
2020/12/20 10:03:14;;;;;;;4.30;3.80;;;7.30;99.90;;;8.42;71.52;100721.84;4733483;30;20216;-62
2020/12/20 10:05:43;;;;;;;5.50;3.67;;;7.40;99.90;;;8.62;68.84;100717.47;4733179;30;20281;-62
2020/12/20 10:08:11;;;;;;;4.80;3.80;;;7.50;99.90;;;8.51;69.32;100731.44;4733686;30;20225;-63
2020/12/20 10:10:38;;;;;;;4.43;3.43;;;7.60;99.90;;;8.54;70.27;100719.50;4732930;30;20217;-63
2020/12/20 10:13:06;;;;;;;7.00;4.03;;;7.50;99.90;;;8.67;69.56;100721.44;4733482;30;20212;-63
2020/12/20 10:15:33;;;;;;;8.00;3.87;;;7.60;99.90;;;8.71;67.55;100738.84;4733121;30;20213;-62
2020/12/20 10:18:01;;;;;;;4.40;3.90;;;7.60;99.90;;;8.50;68.22;100734.31;4738011;30;20579;-61
2020/12/20 10:20:29;;;;;;;4.90;4.07;;;7.60;99.90;;;8.37;69.08;100729.63;4751690;30;20208;-62
2020/12/20 10:22:56;;;;;;;5.37;3.57;;;7.50;99.90;;;8.43;69.59;100725.38;4750863;30;20262;-62
2020/12/20 10:25:23;;;;;;;4.83;3.93;;;7.50;99.90;;;8.35;68.01;100723.66;4751677;30;20340;-62
2020/12/20 10:27:54;;;;;;;4.83;3.70;;;7.50;99.90;;;8.39;69.15;100730.28;4751152;30;20216;-62
2020/12/20 10:30:22;;;;;;;5.07;4.00;;;7.50;99.90;;;8.50;69.02;100724.41;4750806;30;20388;-62
2020/12/20 10:32:50;;;;;;;4.97;4.10;;;7.50;99.90;;;8.42;68.82;100716.47;4750700;30;20222;-62
2020/12/20 10:35:18;;;;;;;4.73;3.80;;;7.50;99.90;;;8.11;69.66;100715.94;4750711;30;20283;-62
2020/12/20 10:37:46;;;;;;;4.17;3.77;;;7.40;99.90;;;8.06;70.55;100715.66;4750351;30;20248;-63